createdAt,value
2017-10-26T00:01:54.431Z,16.50
2017-10-26T00:04:22.745Z,16.50
2017-10-26T00:06:50.256Z,16.50
2017-10-26T00:09:17.814Z,16.50
2017-10-26T00:11:45.333Z,16.50
2017-10-26T00:14:12.847Z,16.60
2017-10-26T00:16:40.379Z,16.60
2017-10-26T00:19:07.895Z,16.60
2017-10-26T00:21:35.469Z,16.60
2017-10-26T00:24:02.970Z,16.50
2017-10-26T00:26:30.503Z,16.60
2017-10-26T00:28:58.064Z,16.60
2017-10-26T00:31:25.660Z,16.60
2017-10-26T00:33:53.231Z,16.60
2017-10-26T00:36:21.536Z,16.60
2017-10-26T00:38:49.083Z,16.60
2017-10-26T00:41:17.384Z,16.70
2017-10-26T00:43:44.893Z,16.70
2017-10-26T00:46:12.715Z,16.70
2017-10-26T00:48:40.222Z,16.70
2017-10-26T00:51:07.750Z,16.70
2017-10-26T00:53:35.298Z,16.70
2017-10-26T00:56:02.812Z,16.70
2017-10-26T00:58:30.610Z,16.60
2017-10-26T01:00:58.130Z,16.60
2017-10-26T01:03:25.765Z,16.50
2017-10-26T01:05:53.315Z,16.50
2017-10-26T01:08:20.832Z,16.40
2017-10-26T01:10:49.141Z,16.40
2017-10-26T01:13:16.659Z,16.30
2017-10-26T01:15:44.979Z,16.30
2017-10-26T01:18:12.537Z,16.30
2017-10-26T01:20:40.063Z,16.30
2017-10-26T01:23:08.387Z,16.20
2017-10-26T01:25:35.901Z,16.20
2017-10-26T01:28:04.176Z,16.20
2017-10-26T01:30:32.487Z,16.20
2017-10-26T01:33:00.006Z,16.20
2017-10-26T01:35:27.553Z,16.20
2017-10-26T01:37:55.073Z,16.20
2017-10-26T01:40:22.589Z,16.20
2017-10-26T01:42:50.132Z,16.10
2017-10-26T01:45:17.669Z,16.10
2017-10-26T01:47:45.467Z,16.10
2017-10-26T01:50:13.867Z,16.10
2017-10-26T01:52:42.148Z,16.00
2017-10-26T01:55:10.478Z,16.00
2017-10-26T01:57:38.001Z,16.00
2017-10-26T02:00:05.559Z,16.00
2017-10-26T02:02:33.083Z,16.00
2017-10-26T02:05:00.598Z,16.00
2017-10-26T02:07:28.148Z,15.90
2017-10-26T02:09:55.668Z,15.90
2017-10-26T02:12:23.993Z,15.80
2017-10-26T02:14:51.523Z,15.80
2017-10-26T02:17:19.801Z,15.70
2017-10-26T02:19:48.116Z,15.70
2017-10-26T02:22:15.639Z,15.70
2017-10-26T02:24:43.948Z,15.70
2017-10-26T02:27:11.455Z,15.70
2017-10-26T02:30:00.051Z,15.70
2017-10-26T02:32:27.576Z,15.70
2017-10-26T02:34:55.878Z,15.70
2017-10-26T02:37:23.417Z,15.70
2017-10-26T02:39:51.698Z,15.70
2017-10-26T02:42:20.015Z,15.70
2017-10-26T02:44:47.521Z,15.70
2017-10-26T02:47:15.071Z,15.70
2017-10-26T02:49:42.617Z,15.80
2017-10-26T02:52:10.130Z,15.70
2017-10-26T02:54:38.473Z,15.70
2017-10-26T02:57:05.986Z,15.70
2017-10-26T02:59:33.517Z,15.70
2017-10-26T03:02:01.847Z,15.80
2017-10-26T03:04:29.378Z,15.80
2017-10-26T03:06:57.257Z,15.80
2017-10-26T03:09:24.771Z,15.90
2017-10-26T03:11:52.278Z,15.90
2017-10-26T03:14:19.897Z,15.90
2017-10-26T03:16:48.185Z,16.00
2017-10-26T03:19:16.488Z,16.00
2017-10-26T03:21:44.004Z,16.00
2017-10-26T03:24:11.518Z,16.10
2017-10-26T03:26:39.069Z,16.10
2017-10-26T03:29:06.578Z,16.10
2017-10-26T03:31:34.414Z,16.10
2017-10-26T03:34:01.926Z,16.10
2017-10-26T03:36:30.202Z,16.10
2017-10-26T03:38:58.507Z,16.10
2017-10-26T03:41:26.046Z,16.10
2017-10-26T03:43:54.635Z,16.10
2017-10-26T03:46:22.908Z,16.10
2017-10-26T03:48:51.186Z,16.10
2017-10-26T03:51:19.499Z,16.10
2017-10-26T03:53:47.020Z,16.00
2017-10-26T03:56:15.601Z,16.10
2017-10-26T03:58:43.885Z,16.10
2017-10-26T04:01:12.163Z,16.10
2017-10-26T04:03:40.477Z,16.10
2017-10-26T04:06:07.984Z,16.10
2017-10-26T04:08:36.330Z,16.00
2017-10-26T04:11:03.832Z,16.00
2017-10-26T04:13:32.105Z,16.00
2017-10-26T04:16:00.440Z,15.90
2017-10-26T04:18:27.957Z,15.90
2017-10-26T04:20:56.559Z,15.90
2017-10-26T04:23:24.109Z,15.90
2017-10-26T04:25:52.386Z,15.90
2017-10-26T04:28:19.927Z,15.90
2017-10-26T04:30:48.196Z,15.90
2017-10-26T04:33:16.012Z,15.90
2017-10-26T04:35:43.537Z,15.90
2017-10-26T04:38:11.822Z,16.00
2017-10-26T04:40:40.140Z,16.00
2017-10-26T04:43:07.666Z,16.00
2017-10-26T04:45:35.981Z,16.00
2017-10-26T04:48:03.506Z,15.90
2017-10-26T04:50:31.036Z,15.90
2017-10-26T04:52:58.587Z,15.90
2017-10-26T04:55:26.105Z,15.90
2017-10-26T04:57:53.653Z,15.90
2017-10-26T05:00:21.155Z,15.90
2017-10-26T05:02:48.683Z,15.90
2017-10-26T05:05:16.231Z,15.90
2017-10-26T05:07:43.769Z,15.90
2017-10-26T05:10:12.389Z,15.90
2017-10-26T05:12:39.912Z,15.90
2017-10-26T05:15:07.439Z,15.90
2017-10-26T05:17:34.973Z,15.80
2017-10-26T05:20:02.495Z,15.80
2017-10-26T05:22:30.834Z,15.70
2017-10-26T05:24:58.350Z,15.70
2017-10-26T05:27:25.900Z,15.70
2017-10-26T05:29:54.215Z,15.60
2017-10-26T05:32:22.498Z,15.60
2017-10-26T05:34:50.054Z,15.60
2017-10-26T05:37:17.587Z,15.60
2017-10-26T05:39:45.130Z,15.60
2017-10-26T05:42:13.432Z,15.60
2017-10-26T05:44:40.962Z,15.60
2017-10-26T05:47:08.525Z,15.60
2017-10-26T05:49:36.820Z,15.60
2017-10-26T05:52:05.090Z,15.70
2017-10-26T05:54:33.398Z,15.70
2017-10-26T05:57:00.923Z,15.60
2017-10-26T05:59:28.498Z,15.70
2017-10-26T06:01:56.778Z,15.70
2017-10-26T06:04:24.303Z,15.70
2017-10-26T06:06:51.909Z,15.60
2017-10-26T06:09:19.421Z,15.70
2017-10-26T06:11:46.983Z,15.70
2017-10-26T06:14:14.515Z,15.70
2017-10-26T06:16:42.030Z,15.70
2017-10-26T06:19:10.337Z,15.70
2017-10-26T06:21:37.886Z,15.70
2017-10-26T06:24:05.435Z,15.70
2017-10-26T06:26:32.948Z,15.70
2017-10-26T06:29:00.468Z,15.80
2017-10-26T06:31:28.011Z,15.70
2017-10-26T06:33:56.295Z,15.70
2017-10-26T06:36:23.850Z,15.70
2017-10-26T06:38:51.373Z,15.70
2017-10-26T06:41:18.879Z,15.80
2017-10-26T06:43:46.420Z,15.80
2017-10-26T06:46:14.704Z,15.80
2017-10-26T06:48:43.035Z,15.80
2017-10-26T06:51:10.570Z,15.80
2017-10-26T06:53:38.103Z,15.90
2017-10-26T06:56:06.409Z,15.90
2017-10-26T06:58:33.927Z,15.90
2017-10-26T07:01:02.520Z,16.00
2017-10-26T07:03:30.827Z,16.00
2017-10-26T07:05:58.342Z,16.00
2017-10-26T07:08:26.678Z,16.10
2017-10-26T07:10:54.197Z,16.00
2017-10-26T07:13:21.772Z,16.10
2017-10-26T07:15:49.321Z,16.20
2017-10-26T07:18:17.609Z,16.20
2017-10-26T07:20:45.154Z,16.20
2017-10-26T07:23:13.434Z,16.20
2017-10-26T07:25:41.744Z,16.20
2017-10-26T07:28:09.271Z,16.20
2017-10-26T07:30:37.558Z,16.20
2017-10-26T07:33:05.110Z,16.20
2017-10-26T07:35:33.401Z,16.10
2017-10-26T07:38:01.723Z,16.10
2017-10-26T07:40:29.237Z,16.10
2017-10-26T07:42:56.775Z,16.10
2017-10-26T07:45:24.317Z,16.10
2017-10-26T07:47:51.838Z,16.10
2017-10-26T07:50:19.382Z,16.20
2017-10-26T07:52:46.913Z,16.30
2017-10-26T07:55:15.199Z,16.40
2017-10-26T07:57:43.616Z,16.50
2017-10-26T08:00:11.147Z,16.60
2017-10-26T08:02:39.462Z,16.70
2017-10-26T08:05:06.995Z,16.70
2017-10-26T08:07:34.527Z,16.80
2017-10-26T08:10:02.858Z,16.90
2017-10-26T08:12:30.383Z,16.90
2017-10-26T08:14:58.191Z,16.90
2017-10-26T08:17:25.708Z,16.90
2017-10-26T08:19:54.004Z,17.00
2017-10-26T08:22:21.715Z,17.00
2017-10-26T08:24:49.267Z,17.10
2017-10-26T08:27:16.825Z,17.20
2017-10-26T08:29:44.341Z,17.30
2017-10-26T08:32:12.615Z,17.10
2017-10-26T08:34:40.938Z,17.00
2017-10-26T08:37:08.454Z,17.00
2017-10-26T08:39:36.364Z,17.00
2017-10-26T08:42:03.878Z,17.00
2017-10-26T08:44:32.174Z,17.10
2017-10-26T08:46:59.731Z,17.00
2017-10-26T08:49:27.260Z,17.00
2017-10-26T08:51:55.583Z,17.20
2017-10-26T08:54:23.108Z,17.20
2017-10-26T08:56:51.382Z,17.40
2017-10-26T08:59:19.687Z,17.50
2017-10-26T09:01:47.202Z,17.40
2017-10-26T09:04:14.778Z,17.50
2017-10-26T09:06:43.064Z,17.50
2017-10-26T09:09:11.365Z,17.60
2017-10-26T09:11:38.922Z,17.60
2017-10-26T09:14:06.451Z,17.60
2017-10-26T09:16:35.034Z,17.70
2017-10-26T09:19:02.549Z,17.70
2017-10-26T09:21:30.093Z,17.80
2017-10-26T09:23:57.675Z,17.80
2017-10-26T09:26:25.208Z,17.80
2017-10-26T09:28:52.791Z,17.80
2017-10-26T09:31:20.326Z,17.90
2017-10-26T09:33:47.876Z,17.90
2017-10-26T09:36:16.231Z,18.00
2017-10-26T09:38:43.786Z,18.00
2017-10-26T09:41:11.382Z,18.10
2017-10-26T09:43:38.913Z,18.20
2017-10-26T09:46:06.482Z,18.20
2017-10-26T09:48:34.814Z,18.20
2017-10-26T09:51:02.343Z,18.20
2017-10-26T09:53:29.952Z,18.20
2017-10-26T09:55:57.520Z,18.20
2017-10-26T09:58:25.067Z,18.20
2017-10-26T10:00:52.655Z,18.30
2017-10-26T10:03:20.192Z,18.40
2017-10-26T10:05:47.830Z,18.50
2017-10-26T10:08:15.379Z,18.60
2017-10-26T10:10:42.952Z,18.70
2017-10-26T10:13:10.540Z,18.70
2017-10-26T10:15:38.087Z,18.70
2017-10-26T10:18:05.998Z,18.70
2017-10-26T10:20:34.334Z,18.70
2017-10-26T10:23:01.899Z,18.70
2017-10-26T10:25:29.500Z,18.80
2017-10-26T10:27:57.835Z,18.90
2017-10-26T10:30:25.491Z,18.90
2017-10-26T10:32:53.055Z,19.00
2017-10-26T10:35:20.614Z,19.10
2017-10-26T10:37:48.230Z,19.20
2017-10-26T10:40:16.567Z,19.40
2017-10-26T10:42:44.191Z,19.30
2017-10-26T10:45:11.738Z,19.40
2017-10-26T10:47:40.048Z,19.20
2017-10-26T10:50:07.632Z,19.20
2017-10-26T10:52:35.182Z,19.20
2017-10-26T10:55:02.812Z,19.10
2017-10-26T10:57:30.363Z,19.00
2017-10-26T11:00:04.341Z,18.90
2017-10-26T11:02:31.870Z,18.90
2017-10-26T11:04:59.484Z,18.90
2017-10-26T11:07:27.827Z,18.90
2017-10-26T11:09:55.392Z,18.90
2017-10-26T11:12:22.991Z,18.90
2017-10-26T11:14:51.312Z,18.90
2017-10-26T11:17:18.887Z,18.90
2017-10-26T11:19:46.447Z,18.90
2017-10-26T11:22:14.006Z,18.90
2017-10-26T11:24:41.595Z,18.90
2017-10-26T11:27:09.171Z,19.00
2017-10-26T11:29:37.476Z,19.00
2017-10-26T11:32:05.086Z,19.00
2017-10-26T11:34:32.681Z,18.90
2017-10-26T11:37:01.044Z,18.90
2017-10-26T11:39:29.376Z,18.90
2017-10-26T11:41:57.031Z,18.90
2017-10-26T11:44:24.625Z,18.90
2017-10-26T11:46:52.202Z,18.90
2017-10-26T11:49:19.782Z,19.20
2017-10-26T11:51:47.386Z,19.70
2017-10-26T11:54:14.934Z,20.00
2017-10-26T11:56:42.522Z,20.40
2017-10-26T11:59:10.067Z,20.60
2017-10-26T12:01:37.700Z,20.80
2017-10-26T12:04:05.254Z,20.80
2017-10-26T12:06:33.566Z,21.20
2017-10-26T12:09:01.134Z,21.20
2017-10-26T12:11:28.681Z,21.30
2017-10-26T12:13:56.264Z,21.10
2017-10-26T12:16:23.873Z,20.80
2017-10-26T12:18:52.167Z,20.50
2017-10-26T12:21:19.733Z,20.50
2017-10-26T12:23:47.297Z,20.50
2017-10-26T12:26:14.867Z,20.50
2017-10-26T12:28:42.398Z,20.50
2017-10-26T12:31:09.955Z,20.40
2017-10-26T12:33:37.580Z,20.40
2017-10-26T12:36:05.124Z,20.30
2017-10-26T12:38:33.010Z,20.30
2017-10-26T12:41:00.564Z,20.30
2017-10-26T12:43:28.116Z,20.20
2017-10-26T12:45:55.724Z,20.20
2017-10-26T12:48:24.041Z,19.90
2017-10-26T12:50:51.616Z,19.90
2017-10-26T12:53:19.163Z,19.80
2017-10-26T12:55:46.739Z,19.80
2017-10-26T12:58:14.339Z,19.80
2017-10-26T13:00:42.661Z,19.80
2017-10-26T13:03:10.276Z,19.80
2017-10-26T13:05:38.606Z,19.80
2017-10-26T13:08:06.213Z,19.80
2017-10-26T13:10:33.812Z,19.80
2017-10-26T13:13:01.372Z,19.70
2017-10-26T13:15:28.944Z,19.60
2017-10-26T13:17:56.483Z,19.60
2017-10-26T13:20:24.045Z,19.50
2017-10-26T13:22:52.038Z,19.40
2017-10-26T13:25:20.415Z,19.40
2017-10-26T13:27:48.571Z,19.30
2017-10-26T13:30:16.111Z,19.30
2017-10-26T13:32:44.466Z,19.30
2017-10-26T13:35:12.070Z,19.30
2017-10-26T13:37:40.422Z,19.30
2017-10-26T13:40:08.800Z,19.40
2017-10-26T13:42:36.366Z,19.30
2017-10-26T13:45:04.719Z,19.40
2017-10-26T13:47:32.304Z,19.30
2017-10-26T13:50:00.619Z,19.30
2017-10-26T13:52:28.186Z,19.30
2017-10-26T13:54:55.742Z,19.30
2017-10-26T13:57:23.290Z,19.30
2017-10-26T13:59:50.873Z,19.30
2017-10-26T14:02:18.402Z,19.30
2017-10-26T14:04:47.053Z,19.20
2017-10-26T14:07:14.594Z,19.20
2017-10-26T14:09:42.134Z,19.10
2017-10-26T14:12:09.708Z,19.10
2017-10-26T14:14:37.261Z,19.00
2017-10-26T14:17:04.850Z,18.90
2017-10-26T14:19:32.414Z,18.90
2017-10-26T14:21:59.959Z,18.80
2017-10-26T14:24:27.607Z,18.80
2017-10-26T14:26:55.176Z,18.70
2017-10-26T14:29:22.746Z,18.60
2017-10-26T14:31:50.303Z,18.60
2017-10-26T14:34:17.861Z,18.50
2017-10-26T14:36:45.436Z,18.50
2017-10-26T14:39:13.025Z,18.50
2017-10-26T14:41:41.370Z,18.40
2017-10-26T14:44:09.010Z,18.40
2017-10-26T14:46:36.559Z,18.30
2017-10-26T14:49:04.126Z,18.20
2017-10-26T14:51:31.677Z,18.20
2017-10-26T14:53:59.286Z,18.10
2017-10-26T14:56:26.991Z,18.10
2017-10-26T14:58:54.631Z,18.00
2017-10-26T15:01:22.248Z,18.00
2017-10-26T15:03:49.812Z,17.90
2017-10-26T15:06:17.430Z,17.90
2017-10-26T15:08:45.756Z,17.90
2017-10-26T15:11:13.312Z,17.80
2017-10-26T15:13:40.924Z,17.90
2017-10-26T15:16:09.279Z,17.90
2017-10-26T15:18:36.942Z,17.90
2017-10-26T15:21:04.500Z,17.80
2017-10-26T15:23:32.034Z,17.80
2017-10-26T15:25:59.650Z,17.70
2017-10-26T15:28:27.992Z,17.60
2017-10-26T15:30:55.607Z,17.60
2017-10-26T15:33:24.492Z,17.60
2017-10-26T15:35:52.075Z,17.50
2017-10-26T15:38:19.680Z,17.50
2017-10-26T15:40:47.262Z,17.40
2017-10-26T15:43:15.144Z,17.30
2017-10-26T15:45:43.490Z,17.20
2017-10-26T15:48:11.067Z,17.20
2017-10-26T15:50:39.420Z,17.10
2017-10-26T15:53:06.955Z,17.10
2017-10-26T15:55:34.603Z,17.10
2017-10-26T15:58:02.232Z,17.00
2017-10-26T16:00:29.808Z,17.00
2017-10-26T16:02:57.403Z,17.00
2017-10-26T16:05:24.954Z,16.90
2017-10-26T16:07:52.588Z,16.80
2017-10-26T16:10:20.956Z,16.70
2017-10-26T16:12:49.324Z,16.60
2017-10-26T16:15:17.688Z,16.60
2017-10-26T16:17:46.012Z,16.50
2017-10-26T16:20:14.380Z,16.40
2017-10-26T16:22:42.701Z,16.40
2017-10-26T16:25:10.250Z,16.40
2017-10-26T16:27:37.827Z,16.40
2017-10-26T16:30:05.415Z,16.30
2017-10-26T16:32:33.011Z,16.30
2017-10-26T16:35:01.368Z,16.20
2017-10-26T16:37:28.935Z,16.20
2017-10-26T16:39:56.524Z,16.10
2017-10-26T16:42:24.129Z,16.10
2017-10-26T16:44:51.696Z,16.10
2017-10-26T16:47:19.282Z,16.00
2017-10-26T16:49:46.822Z,16.00
2017-10-26T16:52:14.484Z,16.00
2017-10-26T16:54:42.064Z,15.90
2017-10-26T16:57:09.908Z,15.90
2017-10-26T16:59:37.459Z,15.90
2017-10-26T17:02:05.025Z,16.00
2017-10-26T17:04:32.624Z,16.00
2017-10-26T17:07:00.941Z,16.00
2017-10-26T17:09:28.692Z,16.00
2017-10-26T17:11:56.275Z,16.00
2017-10-26T17:14:23.917Z,16.00
2017-10-26T17:16:51.535Z,16.00
2017-10-26T17:19:19.116Z,15.90
2017-10-26T17:21:47.495Z,15.90
2017-10-26T17:24:15.820Z,15.90
2017-10-26T17:26:43.403Z,15.90
2017-10-26T17:29:11.052Z,15.80
2017-10-26T17:31:38.649Z,15.80
2017-10-26T17:34:06.267Z,15.80
2017-10-26T17:36:33.848Z,15.80
2017-10-26T17:39:01.580Z,15.80
2017-10-26T17:41:29.203Z,15.80
2017-10-26T17:43:56.823Z,15.80
2017-10-26T17:46:24.407Z,15.80
2017-10-26T17:48:52.016Z,15.80
2017-10-26T17:51:19.979Z,15.80
2017-10-26T17:53:47.607Z,15.80
2017-10-26T17:56:15.221Z,15.80
2017-10-26T17:58:43.136Z,15.80
2017-10-26T18:01:10.700Z,15.80
2017-10-26T18:03:38.261Z,15.80
2017-10-26T18:06:05.887Z,15.80
2017-10-26T18:08:33.456Z,15.70
2017-10-26T18:11:01.166Z,15.70
2017-10-26T18:13:29.058Z,15.70
2017-10-26T18:15:56.616Z,15.70
2017-10-26T18:18:24.227Z,15.70
2017-10-26T18:20:51.957Z,15.70
2017-10-26T18:23:20.070Z,15.60
2017-10-26T18:25:47.886Z,15.60
2017-10-26T18:28:15.498Z,15.60
2017-10-26T18:30:43.126Z,15.70
2017-10-26T18:33:10.899Z,15.70
2017-10-26T18:35:38.649Z,15.70
2017-10-26T18:38:06.240Z,15.60
2017-10-26T18:40:33.936Z,15.70
2017-10-26T18:43:03.498Z,15.70
2017-10-26T18:45:31.222Z,15.70
2017-10-26T18:47:59.670Z,15.70
2017-10-26T18:50:27.708Z,15.60
2017-10-26T18:52:55.536Z,15.60
2017-10-26T18:55:23.974Z,15.60
2017-10-26T18:57:51.807Z,15.60
2017-10-26T19:00:19.459Z,15.60
2017-10-26T19:02:47.034Z,15.60
2017-10-26T19:05:14.613Z,15.60
2017-10-26T19:07:42.276Z,15.60
2017-10-26T19:10:09.868Z,15.60
2017-10-26T19:12:37.496Z,15.60
2017-10-26T19:15:05.650Z,15.50
2017-10-26T19:17:33.317Z,15.50
2017-10-26T19:20:00.886Z,15.50
2017-10-26T19:22:28.660Z,15.50
2017-10-26T19:24:56.415Z,15.50
2017-10-26T19:27:23.977Z,15.50
2017-10-26T19:29:51.529Z,15.50
2017-10-26T19:32:19.255Z,15.60
2017-10-26T19:34:46.935Z,15.60
2017-10-26T19:37:14.576Z,15.60
2017-10-26T19:39:42.136Z,15.70
2017-10-26T19:42:09.769Z,15.70
2017-10-26T19:44:37.406Z,15.70
2017-10-26T19:47:05.688Z,15.60
2017-10-26T19:49:33.699Z,15.70
2017-10-26T19:52:01.332Z,15.60
2017-10-26T19:54:28.951Z,15.70
2017-10-26T19:56:57.410Z,15.80
2017-10-26T19:59:25.048Z,15.70
2017-10-26T20:01:52.681Z,15.80
2017-10-26T20:04:20.271Z,15.80
2017-10-26T20:06:47.822Z,15.90
2017-10-26T20:09:15.517Z,15.90
2017-10-26T20:11:43.144Z,15.90
2017-10-26T20:14:10.767Z,16.00
2017-10-26T20:16:39.167Z,16.10
2017-10-26T20:19:06.759Z,16.10
2017-10-26T20:21:34.384Z,16.10
2017-10-26T20:24:02.808Z,16.20
2017-10-26T20:26:30.434Z,16.20
2017-10-26T20:28:58.760Z,16.20
2017-10-26T20:31:26.310Z,16.20
2017-10-26T20:33:53.928Z,16.20
2017-10-26T20:36:22.279Z,16.20
2017-10-26T20:38:49.901Z,16.20
2017-10-26T20:41:17.543Z,16.30
2017-10-26T20:43:45.134Z,16.30
2017-10-26T20:46:12.784Z,16.30
2017-10-26T20:48:40.344Z,16.30
2017-10-26T20:51:13.558Z,16.30
2017-10-26T20:53:46.744Z,16.30
2017-10-26T20:56:19.941Z,16.40
2017-10-26T20:58:53.094Z,16.40
2017-10-26T21:01:27.251Z,16.40
2017-10-26T21:04:00.571Z,16.30
2017-10-26T21:06:28.152Z,16.30
2017-10-26T21:09:02.261Z,16.40
2017-10-26T21:11:36.339Z,16.40
2017-10-26T21:14:09.593Z,16.40
2017-10-26T21:16:37.170Z,16.40
2017-10-26T21:19:04.745Z,16.40
2017-10-26T21:21:32.726Z,16.40
2017-10-26T21:24:00.274Z,16.40
2017-10-26T21:26:27.834Z,16.40
2017-10-26T21:28:55.415Z,16.40
2017-10-26T21:31:22.975Z,16.40
2017-10-26T21:33:52.408Z,16.40
2017-10-26T21:36:20.764Z,16.40
2017-10-26T21:38:48.411Z,16.40
2017-10-26T21:41:15.976Z,16.40
2017-10-26T21:43:43.527Z,16.40
2017-10-26T21:46:11.135Z,16.40
2017-10-26T21:48:39.493Z,16.30
2017-10-26T21:51:07.075Z,16.30
2017-10-26T21:53:35.392Z,16.30
2017-10-26T21:56:03.022Z,16.30
2017-10-26T21:58:30.592Z,16.30
2017-10-26T22:00:58.897Z,16.30
2017-10-26T22:03:26.475Z,16.30
2017-10-26T22:05:54.037Z,16.20
2017-10-26T22:08:21.606Z,16.20
2017-10-26T22:10:49.169Z,16.10
2017-10-26T22:13:16.772Z,16.10
2017-10-26T22:15:45.072Z,16.00
2017-10-26T22:18:12.651Z,16.00
2017-10-26T22:20:40.255Z,16.00
2017-10-26T22:23:07.783Z,15.90
2017-10-26T22:25:35.355Z,15.90
2017-10-26T22:28:02.904Z,15.80
2017-10-26T22:30:30.451Z,15.80
2017-10-26T22:32:58.073Z,15.70
2017-10-26T22:35:26.384Z,15.60
2017-10-26T22:37:53.962Z,15.60
2017-10-26T22:40:21.514Z,15.60
2017-10-26T22:42:49.403Z,15.60
2017-10-26T22:45:16.935Z,15.60
2017-10-26T22:47:44.505Z,15.60
2017-10-26T22:50:12.075Z,15.50
2017-10-26T22:52:39.616Z,15.50
2017-10-26T22:55:07.255Z,15.50
2017-10-26T22:57:35.552Z,15.50
2017-10-26T23:00:03.128Z,15.50
2017-10-26T23:02:30.675Z,15.50
2017-10-26T23:04:58.222Z,15.50
2017-10-26T23:07:25.792Z,15.50
2017-10-26T23:09:53.336Z,15.50
2017-10-26T23:12:20.925Z,15.50
2017-10-26T23:14:48.498Z,15.50
2017-10-26T23:17:16.061Z,15.50
2017-10-26T23:19:43.625Z,15.50
2017-10-26T23:22:11.184Z,15.50
2017-10-26T23:24:38.763Z,15.50
2017-10-26T23:27:06.312Z,15.50
2017-10-26T23:29:33.899Z,15.60
2017-10-26T23:32:01.460Z,15.60
2017-10-26T23:34:29.039Z,15.60
2017-10-26T23:36:57.349Z,15.60
2017-10-26T23:39:24.875Z,15.60
2017-10-26T23:41:53.243Z,15.60
2017-10-26T23:44:21.565Z,15.60
2017-10-26T23:46:49.155Z,15.60
2017-10-26T23:49:16.677Z,15.60
2017-10-26T23:51:44.591Z,15.60
2017-10-26T23:54:12.151Z,15.60
2017-10-26T23:56:39.680Z,15.70
2017-10-26T23:59:07.258Z,15.60
